Pagrindinis puslapis
METAR-TAF:

METAR-TAF

Oro uostai :

Buffalo Narrows, Manitoba, Kanada

platuma: 55-50N, ilguma: 108-27W, Aukštis: 434 m

Dabartinis oras

Ataskaita buvo paskelbta 18 minutes, ne 07:00 UTC
Vėjas 6 kt iš Pietų
Temperatūra -5°C
Drėgmė 100%
Slėgis 1009 hPa
Matomumas: 14.5 km
Mažai debesys ne aukštis 18000 ft
Išsisklaidę debesys ne aukštis 24000 ft

METAR: CYVT 280700Z AUTO 18006KT 9SM FEW180 SCT240 M05/M05 A2980 RMK SLP120

Laikas: 01:18 (07:18 UTC)

Prognozė

Ataskaita buvo paskelbta 10 valandos ir 40 minutes, ne 20:38 UTC
Prognozė galioja nuo 27 metu 21 UTC su 28 metu 04 UTC
Vėjas 5 kt iš Vakarų/Pietvakarių
Matomumas: 10 km
Išsisklaidę debesys ne aukštis 9000 ft
Laikinai
nuo 27 metu 21 UTC su 27 metu 24 UTC
Su prošvaistėmis ne aukštis 9000 ft

TAF: CYVT 272038Z 2721/2804 24005KT P6SM SCT090 TEMPO 2721/2724 BKN090 RMK FCST BASED ON AUTO OBS. NXT FCST WILL BE ISSUED AT 281345Z

Orai ataskaitas ir orų prognozės (METAR, TAF).

turimą stotys yra geltonos ir raudonos taškus žemėlapyje.

Perkelti pele per norėdami pamatyti stoties vardą.

Tada spustelėkite, norėdami matyti oro stebėjimo ir prognozės.

Norėdami pakeisti žemėlapį: spustelėkite ant žalios mygtukų su juodo kryžiaus žemyn,; žalią mygtuką su brūkšneliu, jei norite nutolinti; arba žalių rodyklių gretimoms žemėlapius.


METAR-TAF: